Архив погоды в Богородицком

Метеограмма Богородицкое
Среда, 24 Мая
Время местн. Темп Ветер Видим Явления Облачность нижн/средн/верх Атм. давл. Влжн Точка росы ВНГО R Сост. почвы Tg s
Напр Скр Прв ур.ст ур.м изм
03:00 +14.2° Ю-З 3 - 10 км - облачно 743 763 +0.2 53% +4.8° 2.5 км - - - -
00:00 +12.5° Ю-З 2 - 10 км - ясно 742 763 +0.5 63% +5.6° более 2.5 км - - - -
Вторник, 23 Мая
Время местн. Темп Ветер Видим Явления Облачность нижн/средн/верх Атм. давл. Влжн Точка росы ВНГО R Сост. почвы Tg s
Напр Скр Прв ур.ст ур.м изм
21:00 +14.7° З,Ю-З 2 - 10 км - облачно 742 762 +0.3 54% +5.6° более 2.5 км 0 - - -
18:00 +20.5° Ю-З 4 - 20 км - облачно 742 761 -0.4 34% +4.1° 1.5 км - - - -
15:00 +20.4° Ю,Ю-З 3 - 20 км - переменная облачность 742 762 -0.5 35% +4.3° 1.5 км - - - -
12:00 +16.9° З 2 - 20 км - облачно с прояснениями 743 762 +0.3 39% +2.9° - - - - -
09:00 +14.4° Ю-З 2 - 20 км - облачно с прояснениями 742 762 +0.4 50% +4° 2.5 км 0 Влажная (без луж) +4° -
06:00 +7.1° З,С-З 2 - 20 км - переменная облачность 742 763 +0.7 71% +2.3° - - - - -
03:00 +5° С-З 2 - 10 км - ясно 741 762 +0.1 81% +2° более 2.5 км - - - -
00:00 +7.8° С-З 2 - 10 км - переменная облачность 741 762 +0.6 68% +2.3° более 2.5 км - - - -
Понедельник, 22 Мая
Время местн. Темп Ветер Видим Явления Облачность нижн/средн/верх Атм. давл. Влжн Точка росы ВНГО R Сост. почвы Tg s
Напр Скр Прв ур.ст ур.м изм
21:00 +10.8° С,С-З 1 - 10 км - облачно с прояснениями 741 761 +0.9 59% +3.2° - 0 - - -
18:00 +14.6° С 3 - 20 км - облачно с прояснениями 740 760 +0.4 42% +1.9° - - - - -
15:00 +14.9° С 3 10 20 км - преимущественно облачно 739 759 +0.5 50% +4.6° 1.5 км - - - -
12:00 +12.1° С 4 - 20 км - преимущественно облачно 739 759 +0.8 53% +2.7° 1 км - - - -
09:00 +10.8° С,С-З 4 - 20 км - переменная облачность 738 758 +0.9 59% +3.2° 1 км 7 - - -
06:00 +8.2° С 3 - 20 км - преимущественно облачно 737 757 +0.5 79% +4.8° - - - - -
03:00 +9.3° С 3 - 10 км небо без изменений {ливневые осадки} облачно 737 757 +0.2 92% +8.1° 1 км - - - -
00:00 +10.9° С,С-В 4 - 10 км небо без изменений {ливневые осадки} облачно 736 757 +1 91% +9.5° 1 км - - - -
Воскресенье, 21 Мая
Время местн. Темп Ветер Видим Явления Облачность нижн/средн/верх Атм. давл. Влжн Точка росы ВНГО R Сост. почвы Tg s
Напр Скр Прв ур.ст ур.м изм
21:00 +13.9° С 1 - 10 км умеренный или сильный ливневый дождь облачно 735 755 +0.9 95% +13.1° 1 км 6 - - -
18:00 +16.9° С-З 2 - 20 км - облачно 735 754 0 72% +11.8° 1 км - - - -
15:00 +19.1° Ю,Ю-З 1 - 20 км ливневый дождь облачно 735 754 -0.4 73% +14.1° 1 км - - - -
12:00 +20.5° З,С-З 3 - 20 км - преимущественно облачно 735 735 -1.3 48% +9° 1 км - - - -
09:00 +12.3° С-З 2 - 20 км - облачно 736 756 +0.2 78% +8.6° - 0 - - -
06:00 +12.1° З 2 - 20 км - преимущественно облачно 736 756 -0.8 81% +8.9° 2.5 км - - - -
03:00 +12.6° З,С-З 2 - 10 км - преимущественно облачно 737 757 -0.8 79% +9° - - - - -
00:00 +12.8° С 1 - 10 км - облачно с прояснениями 738 758 -0.8 81% +9.7° - - - - -